PTGLD SSPI-SSGY
Flight info
| Callsign | PTGLD |
|---|---|
| Flight time | 0h 44m |
| Altitude | 4500 |
| Route | DCT 2323S05256W DCT 2343S05319W DCT |
| Aircraft | PA24/L-SDFGIRY/S |
Departure
| Time | 2026-04-12 10:26 |
|---|---|
| Airport | Paranavaí Airport (SSPI) |
Arrival
| Time | 2026-04-12 11:11 |
|---|---|
| Airport | Guaíra Airport (SSGY) |
| Time | Latitude | Longitude | Altitude | Speed | Heading |
|---|---|---|---|---|---|
| 2026-04-12 10:09 | -23.09140 | -52.48940 | 1561 ft | 0 kts | 194° |
| 2026-04-12 10:18 | -23.09145 | -52.48940 | 1561 ft | 1 kts | 151° |
| 2026-04-12 10:18 | -23.09148 | -52.48936 | 1560 ft | 0 kts | 94° |
| 2026-04-12 10:18 | -23.09137 | -52.48927 | 1558 ft | 4 kts | 24° |
| 2026-04-12 10:18 | -23.09099 | -52.48907 | 1560 ft | 7 kts | 28° |
| 2026-04-12 10:19 | -23.09058 | -52.48888 | 1560 ft | 0 kts | 26° |
| 2026-04-12 10:21 | -23.09056 | -52.48887 | 1560 ft | 1 kts | 27° |
| 2026-04-12 10:21 | -23.09025 | -52.48871 | 1560 ft | 11 kts | 12° |
| 2026-04-12 10:21 | -23.08970 | -52.48958 | 1556 ft | 21 kts | 285° |
| 2026-04-12 10:21 | -23.08919 | -52.49142 | 1549 ft | 30 kts | 287° |
| 2026-04-12 10:22 | -23.08853 | -52.49376 | 1540 ft | 32 kts | 288° |
| 2026-04-12 10:22 | -23.08816 | -52.49510 | 1541 ft | 9 kts | 277° |
| 2026-04-12 10:22 | -23.08801 | -52.49524 | 1538 ft | 4 kts | 93° |
| 2026-04-12 10:22 | -23.08802 | -52.49517 | 1541 ft | 0 kts | 107° |
| 2026-04-12 10:25 | -23.08882 | -52.49240 | 1546 ft | 68 kts | 106° |
| 2026-04-12 10:25 | -23.09054 | -52.48688 | 1663 ft | 81 kts | 103° |
| 2026-04-12 10:26 | -23.09236 | -52.48059 | 1823 ft | 94 kts | 105° |
| 2026-04-12 10:26 | -23.09471 | -52.47378 | 2039 ft | 98 kts | 109° |
| 2026-04-12 10:26 | -23.10018 | -52.46984 | 2227 ft | 110 kts | 172° |
| 2026-04-12 10:26 | -23.10670 | -52.47497 | 2305 ft | 134 kts | 242° |
| 2026-04-12 10:27 | -23.10579 | -52.48498 | 2489 ft | 135 kts | 300° |
| 2026-04-12 10:27 | -23.10382 | -52.49467 | 2703 ft | 139 kts | 276° |
| 2026-04-12 10:27 | -23.10598 | -52.50496 | 2849 ft | 143 kts | 242° |
| 2026-04-12 10:27 | -23.11155 | -52.51384 | 3053 ft | 143 kts | 232° |
| 2026-04-12 10:28 | -23.11746 | -52.52264 | 3231 ft | 146 kts | 233° |
| 2026-04-12 10:28 | -23.12334 | -52.53186 | 3399 ft | 150 kts | 235° |
| 2026-04-12 10:28 | -23.12943 | -52.54136 | 3499 ft | 154 kts | 234° |
| 2026-04-12 10:28 | -23.13552 | -52.55066 | 3704 ft | 150 kts | 234° |
| 2026-04-12 10:29 | -23.14164 | -52.56028 | 3758 ft | 157 kts | 235° |
| 2026-04-12 10:29 | -23.14770 | -52.56982 | 3935 ft | 154 kts | 235° |
| 2026-04-12 10:29 | -23.15399 | -52.57933 | 4040 ft | 155 kts | 234° |
| 2026-04-12 10:29 | -23.16020 | -52.58873 | 4190 ft | 152 kts | 235° |
| 2026-04-12 10:30 | -23.16636 | -52.59806 | 4300 ft | 152 kts | 234° |
| 2026-04-12 10:30 | -23.17252 | -52.60738 | 4424 ft | 151 kts | 235° |
| 2026-04-12 10:30 | -23.17864 | -52.61660 | 4584 ft | 151 kts | 235° |
| 2026-04-12 10:30 | -23.18492 | -52.62608 | 4646 ft | 157 kts | 234° |
| 2026-04-12 10:31 | -23.19184 | -52.63550 | 4659 ft | 163 kts | 233° |
| 2026-04-12 10:31 | -23.19837 | -52.64583 | 4656 ft | 169 kts | 237° |
| 2026-04-12 10:31 | -23.20521 | -52.65641 | 4648 ft | 173 kts | 236° |
| 2026-04-12 10:31 | -23.21215 | -52.66720 | 4620 ft | 176 kts | 235° |
| 2026-04-12 10:32 | -23.21930 | -52.67809 | 4618 ft | 177 kts | 235° |
| 2026-04-12 10:32 | -23.22645 | -52.68889 | 4635 ft | 175 kts | 235° |
| 2026-04-12 10:32 | -23.23361 | -52.69962 | 4634 ft | 175 kts | 235° |
| 2026-04-12 10:32 | -23.24071 | -52.71053 | 4639 ft | 177 kts | 235° |
| 2026-04-12 10:33 | -23.24788 | -52.72138 | 4646 ft | 176 kts | 235° |
| 2026-04-12 10:33 | -23.25500 | -52.73208 | 4641 ft | 177 kts | 234° |
| 2026-04-12 10:33 | -23.26221 | -52.74295 | 4641 ft | 177 kts | 235° |
| 2026-04-12 10:33 | -23.26933 | -52.75395 | 4641 ft | 177 kts | 235° |
| 2026-04-12 10:34 | -23.27664 | -52.76472 | 4641 ft | 177 kts | 234° |
| 2026-04-12 10:34 | -23.28402 | -52.77547 | 4643 ft | 177 kts | 234° |
| 2026-04-12 10:34 | -23.29135 | -52.78624 | 4646 ft | 177 kts | 236° |
| 2026-04-12 10:34 | -23.29831 | -52.79741 | 4645 ft | 178 kts | 236° |
| 2026-04-12 10:35 | -23.30538 | -52.80840 | 4647 ft | 179 kts | 236° |
| 2026-04-12 10:35 | -23.31253 | -52.81964 | 4642 ft | 178 kts | 236° |
| 2026-04-12 10:35 | -23.31959 | -52.83050 | 4641 ft | 178 kts | 235° |
| 2026-04-12 10:35 | -23.32677 | -52.84155 | 4642 ft | 180 kts | 236° |
| 2026-04-12 10:36 | -23.33371 | -52.85282 | 4639 ft | 179 kts | 237° |
| 2026-04-12 10:36 | -23.34064 | -52.86401 | 4639 ft | 178 kts | 237° |
| 2026-04-12 10:36 | -23.34754 | -52.87526 | 4641 ft | 179 kts | 238° |
| 2026-04-12 10:36 | -23.35419 | -52.88678 | 4642 ft | 179 kts | 239° |
| 2026-04-12 10:37 | -23.36091 | -52.89820 | 4642 ft | 179 kts | 238° |
| 2026-04-12 10:37 | -23.36764 | -52.90961 | 4634 ft | 179 kts | 237° |
| 2026-04-12 10:37 | -23.37448 | -52.92092 | 4639 ft | 178 kts | 238° |
| 2026-04-12 10:37 | -23.38131 | -52.93217 | 4639 ft | 178 kts | 236° |
| 2026-04-12 10:38 | -23.38949 | -52.94236 | 4638 ft | 180 kts | 227° |
| 2026-04-12 10:38 | -23.39808 | -52.95204 | 4643 ft | 178 kts | 227° |
| 2026-04-12 10:38 | -23.40664 | -52.96204 | 4643 ft | 178 kts | 227° |
| 2026-04-12 10:38 | -23.41505 | -52.97182 | 4640 ft | 180 kts | 227° |
| 2026-04-12 10:39 | -23.42381 | -52.98173 | 4644 ft | 179 kts | 227° |
| 2026-04-12 10:39 | -23.43220 | -52.99153 | 4639 ft | 179 kts | 227° |
| 2026-04-12 10:39 | -23.44069 | -53.00144 | 4641 ft | 179 kts | 227° |
| 2026-04-12 10:39 | -23.44930 | -53.01128 | 4637 ft | 179 kts | 226° |
| 2026-04-12 10:40 | -23.45786 | -53.02104 | 4641 ft | 177 kts | 227° |
| 2026-04-12 10:40 | -23.46639 | -53.03076 | 4641 ft | 177 kts | 227° |
| 2026-04-12 10:40 | -23.47489 | -53.04059 | 4637 ft | 179 kts | 227° |
| 2026-04-12 10:40 | -23.48344 | -53.05038 | 4641 ft | 178 kts | 227° |
| 2026-04-12 10:41 | -23.49189 | -53.06020 | 4642 ft | 178 kts | 227° |
| 2026-04-12 10:41 | -23.50046 | -53.07004 | 4633 ft | 179 kts | 227° |
| 2026-04-12 10:41 | -23.50905 | -53.07986 | 4630 ft | 179 kts | 227° |
| 2026-04-12 10:41 | -23.51756 | -53.08976 | 4631 ft | 180 kts | 228° |
| 2026-04-12 10:42 | -23.52612 | -53.09969 | 4639 ft | 179 kts | 226° |
| 2026-04-12 10:42 | -23.53477 | -53.10936 | 4639 ft | 178 kts | 227° |
| 2026-04-12 10:42 | -23.54327 | -53.11913 | 4638 ft | 179 kts | 228° |
| 2026-04-12 10:42 | -23.55179 | -53.12908 | 4635 ft | 179 kts | 227° |
| 2026-04-12 10:43 | -23.56887 | -53.14844 | 4635 ft | 178 kts | 227° |
| 2026-04-12 10:43 | -23.57737 | -53.15826 | 4639 ft | 178 kts | 228° |
| 2026-04-12 10:43 | -23.58593 | -53.16793 | 4641 ft | 177 kts | 225° |
| 2026-04-12 10:44 | -23.59489 | -53.17715 | 4637 ft | 178 kts | 227° |
| 2026-04-12 10:44 | -23.60324 | -53.18710 | 4639 ft | 178 kts | 229° |
| 2026-04-12 10:44 | -23.61157 | -53.19715 | 4638 ft | 179 kts | 229° |
| 2026-04-12 10:44 | -23.61981 | -53.20719 | 4638 ft | 177 kts | 230° |
| 2026-04-12 10:45 | -23.62805 | -53.21723 | 4642 ft | 178 kts | 228° |
| 2026-04-12 10:45 | -23.63650 | -53.22684 | 4647 ft | 177 kts | 225° |
| 2026-04-12 10:45 | -23.64533 | -53.23616 | 4644 ft | 177 kts | 226° |
| 2026-04-12 10:45 | -23.65415 | -53.24561 | 4645 ft | 178 kts | 225° |
| 2026-04-12 10:46 | -23.66292 | -53.25508 | 4639 ft | 178 kts | 225° |
| 2026-04-12 10:46 | -23.67175 | -53.26455 | 4642 ft | 178 kts | 225° |
| 2026-04-12 10:46 | -23.68053 | -53.27405 | 4638 ft | 178 kts | 225° |
| 2026-04-12 10:46 | -23.68923 | -53.28368 | 4644 ft | 178 kts | 226° |
| 2026-04-12 10:47 | -23.69813 | -53.29323 | 4641 ft | 179 kts | 225° |
| 2026-04-12 10:47 | -23.70701 | -53.30271 | 4641 ft | 178 kts | 225° |
| 2026-04-12 10:47 | -23.71579 | -53.31233 | 4641 ft | 180 kts | 226° |
| 2026-04-12 10:47 | -23.72444 | -53.32221 | 4640 ft | 180 kts | 234° |
| 2026-04-12 10:48 | -23.73021 | -53.33414 | 4648 ft | 178 kts | 246° |
| 2026-04-12 10:48 | -23.73571 | -53.34619 | 4635 ft | 178 kts | 245° |
| 2026-04-12 10:48 | -23.74149 | -53.35813 | 4634 ft | 177 kts | 245° |
| 2026-04-12 10:48 | -23.74697 | -53.36994 | 4629 ft | 175 kts | 245° |
| 2026-04-12 10:49 | -23.75242 | -53.38176 | 4632 ft | 175 kts | 245° |
| 2026-04-12 10:49 | -23.75788 | -53.39370 | 4633 ft | 176 kts | 245° |
| 2026-04-12 10:49 | -23.76353 | -53.40554 | 4634 ft | 175 kts | 245° |
| 2026-04-12 10:49 | -23.76917 | -53.41739 | 4636 ft | 176 kts | 245° |
| 2026-04-12 10:50 | -23.77469 | -53.42938 | 4638 ft | 177 kts | 245° |
| 2026-04-12 10:50 | -23.78036 | -53.44131 | 4638 ft | 176 kts | 245° |
| 2026-04-12 10:50 | -23.78589 | -53.45324 | 4638 ft | 176 kts | 245° |
| 2026-04-12 10:50 | -23.79152 | -53.46518 | 4636 ft | 177 kts | 245° |
| 2026-04-12 10:51 | -23.79718 | -53.47710 | 4635 ft | 176 kts | 245° |
| 2026-04-12 10:51 | -23.80281 | -53.48896 | 4632 ft | 175 kts | 245° |
| 2026-04-12 10:51 | -23.80837 | -53.50077 | 4634 ft | 175 kts | 245° |
| 2026-04-12 10:51 | -23.81381 | -53.51243 | 4633 ft | 175 kts | 246° |
| 2026-04-12 10:52 | -23.81920 | -53.52439 | 4636 ft | 175 kts | 246° |
| 2026-04-12 10:52 | -23.82459 | -53.53642 | 4634 ft | 176 kts | 246° |
| 2026-04-12 10:52 | -23.83018 | -53.54838 | 4629 ft | 176 kts | 245° |
| 2026-04-12 10:52 | -23.83573 | -53.56029 | 4633 ft | 176 kts | 245° |
| 2026-04-12 10:53 | -23.84138 | -53.57219 | 4635 ft | 177 kts | 245° |
| 2026-04-12 10:53 | -23.84700 | -53.58417 | 4626 ft | 177 kts | 245° |
| 2026-04-12 10:53 | -23.85257 | -53.59612 | 4631 ft | 176 kts | 245° |
| 2026-04-12 10:53 | -23.85806 | -53.60807 | 4629 ft | 177 kts | 246° |
| 2026-04-12 10:54 | -23.86359 | -53.62007 | 4627 ft | 176 kts | 245° |
| 2026-04-12 10:54 | -23.86720 | -53.62798 | 4631 ft | 175 kts | 246° |
| 2026-04-12 10:54 | -23.87265 | -53.63986 | 4631 ft | 175 kts | 245° |
| 2026-04-12 10:54 | -23.87823 | -53.65170 | 4632 ft | 175 kts | 245° |
| 2026-04-12 10:55 | -23.88377 | -53.66355 | 4629 ft | 175 kts | 245° |
| 2026-04-12 10:55 | -23.88931 | -53.67543 | 4629 ft | 174 kts | 245° |
| 2026-04-12 10:55 | -23.89480 | -53.68721 | 4628 ft | 173 kts | 246° |
| 2026-04-12 10:55 | -23.90032 | -53.69898 | 4628 ft | 175 kts | 245° |
| 2026-04-12 10:56 | -23.90591 | -53.71081 | 4628 ft | 175 kts | 245° |
| 2026-04-12 10:56 | -23.91150 | -53.72258 | 4629 ft | 175 kts | 245° |
| 2026-04-12 10:56 | -23.91703 | -53.73440 | 4631 ft | 174 kts | 246° |
| 2026-04-12 10:56 | -23.92250 | -53.74620 | 4624 ft | 174 kts | 246° |
| 2026-04-12 10:57 | -23.92801 | -53.75776 | 4632 ft | 173 kts | 245° |
| 2026-04-12 10:57 | -23.93354 | -53.76951 | 4629 ft | 174 kts | 245° |
| 2026-04-12 10:57 | -23.93909 | -53.78131 | 4628 ft | 174 kts | 246° |
| 2026-04-12 10:57 | -23.94462 | -53.79310 | 4624 ft | 175 kts | 246° |
| 2026-04-12 10:58 | -23.95023 | -53.80491 | 4628 ft | 175 kts | 245° |
| 2026-04-12 10:58 | -23.95584 | -53.81672 | 4630 ft | 175 kts | 246° |
| 2026-04-12 10:58 | -23.96142 | -53.82856 | 4633 ft | 175 kts | 245° |
| 2026-04-12 10:58 | -23.96686 | -53.84047 | 4630 ft | 176 kts | 248° |
| 2026-04-12 10:59 | -23.97205 | -53.85263 | 4624 ft | 176 kts | 248° |
| 2026-04-12 10:59 | -23.97725 | -53.86467 | 4631 ft | 174 kts | 248° |
| 2026-04-12 10:59 | -23.98243 | -53.87668 | 4622 ft | 175 kts | 248° |
| 2026-04-12 10:59 | -23.98777 | -53.88866 | 4623 ft | 175 kts | 246° |
| 2026-04-12 11:00 | -23.99303 | -53.90038 | 4620 ft | 168 kts | 246° |
| 2026-04-12 11:00 | -23.99823 | -53.91189 | 4547 ft | 169 kts | 247° |
| 2026-04-12 11:00 | -24.00344 | -53.92336 | 4438 ft | 170 kts | 246° |
| 2026-04-12 11:00 | -24.00871 | -53.93489 | 4321 ft | 170 kts | 246° |
| 2026-04-12 11:01 | -24.01405 | -53.94652 | 4171 ft | 172 kts | 246° |
| 2026-04-12 11:01 | -24.01941 | -53.95820 | 4063 ft | 172 kts | 247° |
| 2026-04-12 11:01 | -24.02478 | -53.96993 | 3942 ft | 173 kts | 246° |
| 2026-04-12 11:01 | -24.02982 | -53.98190 | 3846 ft | 174 kts | 252° |
| 2026-04-12 11:02 | -24.03425 | -53.99417 | 3758 ft | 173 kts | 252° |
| 2026-04-12 11:02 | -24.03877 | -54.00643 | 3650 ft | 174 kts | 252° |
| 2026-04-12 11:02 | -24.04323 | -54.01871 | 3552 ft | 173 kts | 253° |
| 2026-04-12 11:02 | -24.04757 | -54.03095 | 3480 ft | 172 kts | 253° |
| 2026-04-12 11:03 | -24.05198 | -54.04317 | 3378 ft | 173 kts | 253° |
| 2026-04-12 11:03 | -24.05646 | -54.05551 | 3278 ft | 176 kts | 255° |
| 2026-04-12 11:03 | -24.05996 | -54.06842 | 3164 ft | 178 kts | 259° |
| 2026-04-12 11:03 | -24.06352 | -54.08126 | 3075 ft | 175 kts | 259° |
| 2026-04-12 11:04 | -24.06695 | -54.09402 | 2970 ft | 175 kts | 259° |
| 2026-04-12 11:04 | -24.06961 | -54.10703 | 2880 ft | 175 kts | 265° |
| 2026-04-12 11:04 | -24.07160 | -54.12006 | 2784 ft | 173 kts | 270° |
| 2026-04-12 11:04 | -24.07256 | -54.13312 | 2684 ft | 171 kts | 272° |
| 2026-04-12 11:05 | -24.07316 | -54.14617 | 2501 ft | 173 kts | 274° |
| 2026-04-12 11:05 | -24.07368 | -54.15945 | 2286 ft | 175 kts | 277° |
| 2026-04-12 11:05 | -24.07116 | -54.17226 | 2110 ft | 173 kts | 299° |
| 2026-04-12 11:05 | -24.06993 | -54.18466 | 2002 ft | 164 kts | 263° |
| 2026-04-12 11:06 | -24.07401 | -54.19630 | 1919 ft | 166 kts | 253° |
| 2026-04-12 11:06 | -24.07747 | -54.20788 | 1981 ft | 154 kts | 257° |
| 2026-04-12 11:06 | -24.08011 | -54.21891 | 1972 ft | 145 kts | 267° |
| 2026-04-12 11:06 | -24.07924 | -54.22942 | 2007 ft | 134 kts | 288° |
| 2026-04-12 11:07 | -24.07762 | -54.23931 | 1991 ft | 131 kts | 283° |
| 2026-04-12 11:07 | -24.07949 | -54.24905 | 1966 ft | 134 kts | 247° |
| 2026-04-12 11:07 | -24.08562 | -54.25623 | 2035 ft | 129 kts | 212° |
| 2026-04-12 11:07 | -24.09385 | -54.25865 | 2001 ft | 119 kts | 165° |
| 2026-04-12 11:08 | -24.10015 | -54.25446 | 1926 ft | 96 kts | 119° |
| 2026-04-12 11:08 | -24.10311 | -54.24858 | 1849 ft | 85 kts | 95° |
| 2026-04-12 11:08 | -24.10427 | -54.24255 | 1807 ft | 77 kts | 85° |
| 2026-04-12 11:08 | -24.10394 | -54.23673 | 1751 ft | 77 kts | 72° |
| 2026-04-12 11:09 | -24.10209 | -54.23119 | 1651 ft | 82 kts | 60° |
| 2026-04-12 11:09 | -24.09916 | -54.22569 | 1587 ft | 81 kts | 57° |
| 2026-04-12 11:09 | -24.09636 | -54.22061 | 1557 ft | 79 kts | 58° |
| 2026-04-12 11:09 | -24.09355 | -54.21513 | 1435 ft | 86 kts | 59° |
| 2026-04-12 11:10 | -24.09047 | -54.20929 | 1288 ft | 89 kts | 60° |
| 2026-04-12 11:10 | -24.08758 | -54.20376 | 1123 ft | 79 kts | 60° |
| 2026-04-12 11:10 | -24.08480 | -54.19853 | 944 ft | 79 kts | 62° |
| 2026-04-12 11:10 | -24.08243 | -54.19410 | 895 ft | 53 kts | 61° |
| 2026-04-12 11:11 | -24.08093 | -54.19141 | 891 ft | 31 kts | 61° |
| 2026-04-12 11:11 | -24.08014 | -54.18982 | 891 ft | 19 kts | 59° |
| 2026-04-12 11:11 | -24.07962 | -54.18885 | 891 ft | 11 kts | 59° |
| 2026-04-12 11:11 | -24.07931 | -54.18828 | 892 ft | 9 kts | 65° |
| 2026-04-12 11:12 | -24.07965 | -54.18771 | 891 ft | 11 kts | 149° |
| 2026-04-12 11:12 | -24.08008 | -54.18721 | 890 ft | 8 kts | 103° |
| 2026-04-12 11:12 | -24.08002 | -54.18700 | 889 ft | 0 kts | 331° |